Portada
METAR-TAF:

METAR-TAF

Aeroports :

Tirupati, Índia

latitud: 13-38-16N, longitud: 79-32-50E, altitud: 107 m

Observació

L'informe es va fer fa 4 hores i 21 minuts, a les 18:00 UTC
Vent calma
Temperatura 25°C
Humitat 94%
Pressió 1009 hPa
Visibilitat: 4000 m
Escasses núvols a una alçada de 1500 ft
Núvols disperses a una alçada de 2000 ft
Cel ennuvolat a una alçada de 10000 ft
calitja

METAR: VOTP 211800Z 00000KT 4000 HZ FEW015 SCT020 BKN100 25/24 Q1009

Hora: 03:51 (22:21 UTC)

Pronòstic

L'informe es va fer fa 14 hores i 21 minuts, a les 08:00 UTC
Pronòstic vàlid del 21 a les 09 UTC al 21 a les 18 UTC
Vent 6 kt del Est/Nord-Est
Visibilitat: 6000 m
Núvols disperses a una alçada de 2000 ft
Núvols disperses a una alçada de 2500 ft
Temporalment
l' 21 a les 11 UTC al 21 a les 14 UTC
Escasses núvols a una alçada de 3000 ft, Cumulonimbus.
Cel ennuvolat a una alçada de 10000 ft

TAF: VOTP 210800Z 2109/2118 06006KT 6000 SCT020 SCT025 TEMPO 2111/2114 FEW030CB BKN100

Observacions i pronòstics meteorològics de més de 4000 aeroports (METAR i TAF).

Les estacions disponibles són els punts grocs i vermells al mapa.

Posi el ratolí al punt desitjat per veure el nom de l'estació.

Feu clic per veure les observacions i els pronòstics meteorològics.

Per canviar el mapa: feu clic els botons verds amb una creu de color negre per apropar; al botó verd amb un guió per allunyar la imatge; o en les fletxes verdes per a mapes adjacents.


METAR-TAF: